createdAt,value
2022-09-05T00:01:54.383Z,17.50
2022-09-05T00:04:27.290Z,17.50
2022-09-05T00:07:02.418Z,17.40
2022-09-05T00:09:38.260Z,17.40
2022-09-05T00:12:06.626Z,17.40
2022-09-05T00:14:56.164Z,17.40
2022-09-05T00:17:52.686Z,17.40
2022-09-05T00:24:30.242Z,17.30
2022-09-05T00:24:37.911Z,17.40
2022-09-05T00:26:09.052Z,17.30
2022-09-05T00:28:54.547Z,17.30
2022-09-05T00:31:56.858Z,17.40
2022-09-05T00:34:22.931Z,17.50
2022-09-05T00:36:54.967Z,17.60
2022-09-05T00:39:36.382Z,17.60
2022-09-05T00:42:22.479Z,17.60
2022-09-05T00:44:55.078Z,17.60
2022-09-05T00:47:31.799Z,17.70
2022-09-05T00:50:01.410Z,17.60
2022-09-05T00:52:32.591Z,17.60
2022-09-05T00:55:11.091Z,17.60
2022-09-05T00:57:56.019Z,17.60
2022-09-05T01:00:24.521Z,17.60
2022-09-05T01:03:10.544Z,17.60
2022-09-05T01:05:46.985Z,17.50
2022-09-05T01:08:31.288Z,17.50
2022-09-05T01:10:58.497Z,17.50
2022-09-05T01:13:40.979Z,17.40
2022-09-05T01:16:34.253Z,17.50
2022-09-05T01:19:15.977Z,17.50
2022-09-05T01:21:48.142Z,17.50
2022-09-05T01:24:33.705Z,17.40
2022-09-05T01:27:00.726Z,17.50
2022-09-05T01:29:27.784Z,17.50
2022-09-05T01:31:57.636Z,17.50
2022-09-05T01:34:48.020Z,17.40
2022-09-05T01:37:37.787Z,17.30
2022-09-05T01:40:15.904Z,17.30
2022-09-05T01:42:43.686Z,17.20
2022-09-05T01:45:25.564Z,17.20
2022-09-05T01:48:06.882Z,17.10
2022-09-05T01:50:42.792Z,17.10
2022-09-05T01:53:09.904Z,17.10
2022-09-05T01:56:05.125Z,17.10
2022-09-05T01:58:54.677Z,17.10
2022-09-05T02:01:40.588Z,17.10
2022-09-05T02:04:07.762Z,17.10
2022-09-05T02:06:53.524Z,17.00
2022-09-05T02:09:40.389Z,17.00
2022-09-05T02:12:16.453Z,17.00
2022-09-05T02:14:45.142Z,16.90
2022-09-05T02:17:50.980Z,16.90
2022-09-05T02:20:23.885Z,16.80
2022-09-05T02:23:01.142Z,16.90
2022-09-05T02:26:02.301Z,16.90
2022-09-05T02:28:24.913Z,16.90
2022-09-05T02:31:08.575Z,16.90
2022-09-05T02:34:01.857Z,16.80
2022-09-05T02:36:33.298Z,16.90
2022-09-05T02:45:09.015Z,16.90
2022-09-05T02:45:13.247Z,16.80
2022-09-05T02:45:16.769Z,16.70
2022-09-05T02:47:40.112Z,16.70
2022-09-05T02:52:29.226Z,16.70
2022-09-05T02:57:35.596Z,16.60
2022-09-05T02:57:36.107Z,16.60
2022-09-05T02:59:08.507Z,16.70
2022-09-05T03:01:37.793Z,16.70
2022-09-05T03:04:23.381Z,16.70
2022-09-05T03:07:08.918Z,16.70
2022-09-05T03:09:41.972Z,16.80
2022-09-05T03:12:27.208Z,16.80
2022-09-05T03:15:20.767Z,16.80
2022-09-05T03:17:50.342Z,16.80
2022-09-05T03:20:17.314Z,16.80
2022-09-05T03:23:26.468Z,16.90
2022-09-05T03:26:02.940Z,16.90
2022-09-05T03:28:33.029Z,16.90
2022-09-05T03:31:03.412Z,16.90
2022-09-05T03:33:30.692Z,16.90
2022-09-05T03:36:20.105Z,17.00
2022-09-05T03:39:05.594Z,17.00
2022-09-05T03:41:40.356Z,16.90
2022-09-05T03:44:19.150Z,16.90
2022-09-05T03:46:49.031Z,16.80
2022-09-05T03:51:32.094Z,16.80
2022-09-05T03:57:05.968Z,16.80
2022-09-05T03:57:14.942Z,16.80
2022-09-05T03:58:41.943Z,16.70
2022-09-05T04:02:45.078Z,16.70
2022-09-05T04:08:06.858Z,16.70
2022-09-05T04:08:14.568Z,16.60
2022-09-05T04:10:27.717Z,16.60
2022-09-05T04:13:03.812Z,16.60
2022-09-05T04:15:30.867Z,16.60
2022-09-05T04:18:03.960Z,16.60
2022-09-05T04:20:43.545Z,16.50
2022-09-05T04:23:28.746Z,16.50
2022-09-05T04:26:10.990Z,16.50
2022-09-05T04:28:53.527Z,16.40
2022-09-05T04:31:30.519Z,16.40
2022-09-05T04:34:05.986Z,16.40
2022-09-05T04:36:34.209Z,16.40
2022-09-05T04:39:21.424Z,16.40
2022-09-05T04:41:51.004Z,16.40
2022-09-05T04:44:20.893Z,16.30
2022-09-05T04:46:56.328Z,16.30
2022-09-05T04:49:32.148Z,16.30
2022-09-05T04:52:05.493Z,16.20
2022-09-05T04:54:47.591Z,16.20
2022-09-05T04:57:31.887Z,16.30
2022-09-05T05:04:41.028Z,16.20
2022-09-05T05:06:16.665Z,16.30
2022-09-05T05:06:19.737Z,16.30
2022-09-05T05:08:49.453Z,16.30
2022-09-05T05:17:07.543Z,16.50
2022-09-05T05:18:09.962Z,16.90
2022-09-05T05:18:11.661Z,17.10
2022-09-05T05:20:41.830Z,17.50
2022-09-05T05:23:09.328Z,17.90
2022-09-05T05:25:56.324Z,18.20
2022-09-05T05:28:43.702Z,18.30
2022-09-05T05:31:12.472Z,18.60
2022-09-05T05:33:40.918Z,18.80
2022-09-05T05:36:14.897Z,18.90
2022-09-05T05:39:20.288Z,18.80
2022-09-05T05:41:47.690Z,18.90
2022-09-05T05:44:16.037Z,19.10
2022-09-05T05:47:01.864Z,19.10
2022-09-05T05:49:28.891Z,19.40
2022-09-05T05:52:02.581Z,19.70
2022-09-05T05:54:41.132Z,20.10
2022-09-05T05:57:19.644Z,20.50
2022-09-05T05:59:57.636Z,20.70
2022-09-05T06:02:29.150Z,20.50
2022-09-05T06:05:15.006Z,20.40
2022-09-05T06:08:30.542Z,20.90
2022-09-05T06:14:52.424Z,21.20
2022-09-05T06:15:00.012Z,21.40
2022-09-05T06:16:19.510Z,21.60
2022-09-05T06:19:05.406Z,21.50
2022-09-05T06:22:11.031Z,21.60
2022-09-05T06:24:24.519Z,21.70
2022-09-05T06:26:51.563Z,21.90
2022-09-05T06:29:18.588Z,22.00
2022-09-05T06:31:59.190Z,22.10
2022-09-05T06:34:32.982Z,22.40
2022-09-05T06:37:03.408Z,22.40
2022-09-05T06:39:49.419Z,22.90
2022-09-05T06:42:39.065Z,23.20
2022-09-05T06:45:27.001Z,23.30
2022-09-05T06:47:58.163Z,23.30
2022-09-05T06:50:29.275Z,23.60
2022-09-05T06:53:25.381Z,23.70
2022-09-05T06:55:55.614Z,23.40
2022-09-05T06:58:53.595Z,23.80
2022-09-05T07:02:00.761Z,24.00
2022-09-05T07:05:37.154Z,23.80
2022-09-05T07:07:49.778Z,24.00
2022-09-05T07:10:38.352Z,23.90
2022-09-05T07:13:11.264Z,24.10
2022-09-05T07:15:50.452Z,23.70
2022-09-05T07:18:36.158Z,23.30
2022-09-05T07:24:12.263Z,22.80
2022-09-05T07:26:53.633Z,23.00
2022-09-05T07:29:29.940Z,23.00
2022-09-05T07:32:00.047Z,23.10
2022-09-05T07:34:31.666Z,23.10
2022-09-05T07:37:15.585Z,23.30
2022-09-05T07:39:50.362Z,23.40
2022-09-05T07:42:21.509Z,23.30
2022-09-05T07:44:56.721Z,23.20
2022-09-05T07:47:26.475Z,23.20
2022-09-05T07:51:07.714Z,23.20
2022-09-05T07:56:47.244Z,23.20
2022-09-05T07:56:58.766Z,23.20
2022-09-05T07:58:20.677Z,23.20
2022-09-05T08:00:55.226Z,23.30
2022-09-05T08:03:27.865Z,23.40
2022-09-05T08:05:56.296Z,23.30
2022-09-05T08:08:25.708Z,23.40
2022-09-05T08:11:25.181Z,23.50
2022-09-05T08:13:46.590Z,23.70
2022-09-05T08:16:17.060Z,23.70
2022-09-05T08:18:46.620Z,23.70
2022-09-05T08:21:14.338Z,23.60
2022-09-05T08:23:47.590Z,23.60
2022-09-05T08:26:14.733Z,23.60
2022-09-05T08:28:55.728Z,23.60
2022-09-05T08:31:38.581Z,23.70
2022-09-05T08:34:16.438Z,24.00
2022-09-05T08:36:52.887Z,24.00
2022-09-05T08:39:21.302Z,24.00
2022-09-05T08:42:06.247Z,24.20
2022-09-05T08:46:43.401Z,24.20
2022-09-05T08:47:41.485Z,24.20
2022-09-05T08:50:31.888Z,24.30
2022-09-05T08:53:00.505Z,24.50
2022-09-05T08:55:46.295Z,24.60
2022-09-05T08:58:22.436Z,24.60
2022-09-05T09:01:03.792Z,24.80
2022-09-05T09:03:52.142Z,24.70
2022-09-05T09:06:38.242Z,24.60
2022-09-05T09:09:11.538Z,24.70
2022-09-05T09:11:47.159Z,24.90
2022-09-05T09:14:30.208Z,24.90
2022-09-05T09:17:01.060Z,24.90
2022-09-05T09:19:46.839Z,25.00
2022-09-05T09:22:13.971Z,25.00
2022-09-05T09:25:14.979Z,25.00
2022-09-05T09:28:31.634Z,25.10
2022-09-05T09:30:36.236Z,25.20
2022-09-05T09:33:04.847Z,25.30
2022-09-05T09:35:32.110Z,25.30
2022-09-05T09:38:17.707Z,25.30
2022-09-05T09:40:47.392Z,25.40
2022-09-05T09:43:32.318Z,25.50
2022-09-05T09:46:02.470Z,25.70
2022-09-05T09:48:35.423Z,25.70
2022-09-05T09:51:09.611Z,25.80
2022-09-05T09:53:49.492Z,25.80
2022-09-05T09:56:21.983Z,25.90
2022-09-05T09:58:58.597Z,26.00
2022-09-05T10:01:36.688Z,26.10
2022-09-05T10:10:38.353Z,26.10
2022-09-05T10:10:46.315Z,26.20
2022-09-05T10:10:46.528Z,26.30
2022-09-05T10:13:21.450Z,26.40
2022-09-05T10:16:19.264Z,26.60
2022-09-05T10:19:02.635Z,26.40
2022-09-05T10:21:32.737Z,26.70
2022-09-05T10:24:06.102Z,26.90
2022-09-05T10:26:51.872Z,27.30
2022-09-05T10:29:36.606Z,27.30
2022-09-05T10:35:02.907Z,27.50
2022-09-05T10:35:19.948Z,27.70
2022-09-05T10:38:04.405Z,27.70
2022-09-05T10:41:11.053Z,27.80
2022-09-05T10:43:29.009Z,27.60
2022-09-05T10:46:01.443Z,27.20
2022-09-05T10:48:52.407Z,26.80
2022-09-05T10:51:31.175Z,27.00
2022-09-05T10:54:08.028Z,27.30
2022-09-05T10:56:40.977Z,27.70
2022-09-05T11:02:20.214Z,27.80
2022-09-05T11:02:34.631Z,27.70
2022-09-05T11:05:17.598Z,27.70
2022-09-05T11:07:59.207Z,27.50
2022-09-05T11:10:34.136Z,27.70
2022-09-05T11:13:21.798Z,28.10
2022-09-05T11:16:03.783Z,28.00
2022-09-05T11:18:56.150Z,27.80
2022-09-05T11:21:39.356Z,28.10
2022-09-05T11:24:30.775Z,28.80
2022-09-05T11:27:23.754Z,28.80
2022-09-05T11:30:07.038Z,29.40
2022-09-05T11:39:38.118Z,29.70
2022-09-05T11:39:58.054Z,30.60
2022-09-05T11:40:07.349Z,30.20
2022-09-05T11:41:40.642Z,30.60
2022-09-05T11:44:24.907Z,29.70
2022-09-05T11:46:53.865Z,29.50
2022-09-05T11:49:37.788Z,30.10
2022-09-05T11:52:13.811Z,30.40
2022-09-05T11:54:59.796Z,30.70
2022-09-05T11:57:34.714Z,31.10
2022-09-05T12:00:31.922Z,31.70
2022-09-05T12:03:58.012Z,30.80
2022-09-05T12:06:12.526Z,30.30
2022-09-05T12:08:43.436Z,29.70
2022-09-05T12:11:21.433Z,29.20
2022-09-05T12:13:55.138Z,29.40
2022-09-05T12:16:32.126Z,29.50
2022-09-05T12:19:14.219Z,29.90
2022-09-05T12:22:16.466Z,30.30
2022-09-05T12:25:24.985Z,30.60
2022-09-05T12:27:59.932Z,30.80
2022-09-05T12:31:00.436Z,31.60
2022-09-05T12:36:05.626Z,32.80
2022-09-05T12:40:54.834Z,33.30
2022-09-05T12:41:33.806Z,33.30
2022-09-05T12:42:25.786Z,33.30
2022-09-05T12:45:13.886Z,32.60
2022-09-05T12:48:04.363Z,32.60
2022-09-05T12:50:42.851Z,32.80
2022-09-05T12:53:12.914Z,33.00
2022-09-05T12:55:49.428Z,33.20
2022-09-05T13:02:56.672Z,33.00
2022-09-05T13:03:01.348Z,33.30
2022-09-05T13:04:30.361Z,33.70
2022-09-05T13:07:01.374Z,33.80
2022-09-05T13:10:34.073Z,33.50
2022-09-05T13:14:57.190Z,33.50
2022-09-05T13:15:22.634Z,34.10
2022-09-05T13:17:59.406Z,35.00
2022-09-05T13:20:36.977Z,35.10
2022-09-05T13:23:19.132Z,35.40
2022-09-05T13:25:58.740Z,35.20
2022-09-05T13:28:27.242Z,34.60
2022-09-05T13:37:55.307Z,33.80
2022-09-05T13:38:04.874Z,33.30
2022-09-05T13:38:20.015Z,32.40
2022-09-05T13:39:28.458Z,32.70
2022-09-05T13:41:59.611Z,33.50
2022-09-05T13:44:28.339Z,33.30
2022-09-05T13:47:30.201Z,32.90
2022-09-05T13:50:17.685Z,33.30
2022-09-05T13:52:52.771Z,33.40
2022-09-05T13:55:29.977Z,34.10
2022-09-05T13:58:07.594Z,33.30
2022-09-05T14:00:40.482Z,33.40
2022-09-05T14:03:39.277Z,33.00
2022-09-05T14:06:47.825Z,32.60
2022-09-05T14:09:35.793Z,32.60
2022-09-05T14:12:04.530Z,33.40
2022-09-05T14:17:53.315Z,34.50
2022-09-05T14:20:42.915Z,33.90
2022-09-05T14:23:13.630Z,33.70
2022-09-05T14:25:44.449Z,33.90
2022-09-05T14:28:13.728Z,33.20
2022-09-05T14:33:26.650Z,33.10
2022-09-05T14:37:46.277Z,32.60
2022-09-05T14:37:48.499Z,32.70
2022-09-05T14:39:28.843Z,33.20
2022-09-05T14:42:11.315Z,33.30
2022-09-05T14:44:46.739Z,33.70
2022-09-05T14:47:36.292Z,33.30
2022-09-05T14:50:17.670Z,32.50
2022-09-05T14:56:32.011Z,31.50
2022-09-05T15:02:42.867Z,32.50
2022-09-05T15:02:52.294Z,31.90
2022-09-05T15:04:49.419Z,30.60
2022-09-05T15:07:20.582Z,30.10
2022-09-05T15:12:17.890Z,30.40
2022-09-05T15:12:45.915Z,30.10
2022-09-05T15:15:26.369Z,30.10
2022-09-05T15:17:55.828Z,30.20
2022-09-05T15:20:36.926Z,30.30
2022-09-05T15:23:16.449Z,30.40
2022-09-05T15:26:07.309Z,30.50
2022-09-05T15:28:38.305Z,30.10
2022-09-05T15:31:08.330Z,29.60
2022-09-05T15:33:36.290Z,29.20
2022-09-05T15:36:05.537Z,29.00
2022-09-05T15:38:50.363Z,28.90
2022-09-05T15:41:28.137Z,28.90
2022-09-05T15:44:04.557Z,29.20
2022-09-05T15:46:43.071Z,29.40
2022-09-05T15:49:11.751Z,29.20
2022-09-05T15:51:44.072Z,29.40
2022-09-05T15:54:17.118Z,29.50
2022-09-05T15:57:03.489Z,29.70
2022-09-05T15:59:33.141Z,29.50
2022-09-05T16:02:06.246Z,29.20
2022-09-05T16:10:30.049Z,28.80
2022-09-05T16:10:34.155Z,28.50
2022-09-05T16:10:58.114Z,28.10
2022-09-05T16:13:17.521Z,27.80
2022-09-05T16:21:13.044Z,27.60
2022-09-05T16:23:17.634Z,27.50
2022-09-05T16:23:29.700Z,27.50
2022-09-05T16:24:41.505Z,27.40
2022-09-05T16:27:35.075Z,27.40
2022-09-05T16:30:15.563Z,27.40
2022-09-05T16:32:46.554Z,27.40
2022-09-05T16:35:18.996Z,27.40
2022-09-05T16:38:13.103Z,27.40
2022-09-05T16:40:42.664Z,27.40
2022-09-05T16:43:19.279Z,27.40
2022-09-05T16:46:09.520Z,27.30
2022-09-05T16:48:44.902Z,27.10
2022-09-05T16:51:36.289Z,26.90
2022-09-05T16:54:10.887Z,26.80
2022-09-05T16:56:41.243Z,26.60
2022-09-05T16:59:28.837Z,26.30
2022-09-05T17:02:07.501Z,26.20
2022-09-05T17:05:02.934Z,26.10
2022-09-05T17:07:42.247Z,26.00
2022-09-05T17:10:16.678Z,25.90
2022-09-05T17:12:43.753Z,25.70
2022-09-05T17:15:15.775Z,25.60
2022-09-05T17:18:21.851Z,25.50
2022-09-05T17:20:35.976Z,25.30
2022-09-05T17:29:20.755Z,25.10
2022-09-05T17:29:30.407Z,25.00
2022-09-05T17:29:33.608Z,25.00
2022-09-05T17:32:02.240Z,25.00
2022-09-05T17:34:49.883Z,25.00
2022-09-05T17:37:30.914Z,24.80
2022-09-05T17:40:18.102Z,24.80
2022-09-05T17:42:54.552Z,24.60
2022-09-05T17:45:47.884Z,24.50
2022-09-05T17:48:16.887Z,24.40
2022-09-05T17:50:57.058Z,24.30
2022-09-05T17:53:31.057Z,24.30
2022-09-05T17:55:57.978Z,24.20
2022-09-05T17:58:49.756Z,24.20
2022-09-05T18:01:26.839Z,24.20
2022-09-05T18:03:55.894Z,24.10
2022-09-05T18:06:44.200Z,24.00
2022-09-05T18:09:40.031Z,23.80
2022-09-05T18:12:15.356Z,23.70
2022-09-05T18:15:04.649Z,23.60
2022-09-05T18:17:47.744Z,23.50
2022-09-05T18:20:17.197Z,23.40
2022-09-05T18:22:54.876Z,23.50
2022-09-05T18:26:20.828Z,23.50
2022-09-05T18:29:00.159Z,23.40
2022-09-05T18:31:41.529Z,23.30
2022-09-05T18:34:15.614Z,23.20
2022-09-05T18:36:44.924Z,23.20
2022-09-05T18:39:18.025Z,22.90
2022-09-05T18:41:48.545Z,22.80
2022-09-05T18:44:20.260Z,22.70
2022-09-05T18:46:53.801Z,22.70
2022-09-05T18:50:21.719Z,22.70
2022-09-05T18:52:23.909Z,22.60
2022-09-05T18:56:09.204Z,22.50
2022-09-05T18:57:45.821Z,22.40
2022-09-05T19:00:14.627Z,22.40
2022-09-05T19:02:58.278Z,22.30
2022-09-05T19:05:41.085Z,22.30
2022-09-05T19:08:26.804Z,22.20
2022-09-05T19:10:58.781Z,22.10
2022-09-05T19:13:37.378Z,22.10
2022-09-05T19:16:43.993Z,22.10
2022-09-05T19:19:16.369Z,22.10
2022-09-05T19:21:56.155Z,22.10
2022-09-05T19:24:45.722Z,22.00
2022-09-05T19:28:37.083Z,22.00
2022-09-05T19:36:53.409Z,22.00
2022-09-05T19:36:53.753Z,22.10
2022-09-05T19:37:14.266Z,22.10
2022-09-05T19:38:23.242Z,21.90
2022-09-05T19:47:28.265Z,21.70
2022-09-05T19:47:39.848Z,21.40
2022-09-05T19:47:41.036Z,21.50
2022-09-05T19:49:13.682Z,21.40
2022-09-05T19:51:42.132Z,21.50
2022-09-05T19:54:23.050Z,21.50
2022-09-05T19:56:50.341Z,21.60
2022-09-05T19:59:23.143Z,21.60
2022-09-05T20:01:52.035Z,21.70
2022-09-05T20:04:19.804Z,21.60
2022-09-05T20:06:47.778Z,21.70
2022-09-05T20:09:15.990Z,21.60
2022-09-05T20:11:49.788Z,21.60
2022-09-05T20:14:17.528Z,21.60
2022-09-05T20:16:44.753Z,21.60
2022-09-05T20:19:32.863Z,21.60
2022-09-05T20:22:24.243Z,21.60
2022-09-05T20:24:49.777Z,21.60
2022-09-05T20:27:17.638Z,21.60
2022-09-05T20:29:56.052Z,21.30
2022-09-05T20:32:38.973Z,21.30
2022-09-05T20:36:08.184Z,21.10
2022-09-05T20:43:11.434Z,21.20
2022-09-05T20:43:18.457Z,21.20
2022-09-05T20:43:53.180Z,21.10
2022-09-05T20:50:26.046Z,21.00
2022-09-05T20:54:14.953Z,20.90
2022-09-05T20:54:28.320Z,20.80
2022-09-05T20:55:39.853Z,20.80
2022-09-05T20:58:13.051Z,20.80
2022-09-05T21:01:11.670Z,20.80
2022-09-05T21:03:38.229Z,20.80
2022-09-05T21:06:12.009Z,20.80
2022-09-05T21:08:40.116Z,20.90
2022-09-05T21:11:08.058Z,21.00
2022-09-05T21:13:52.267Z,21.00
2022-09-05T21:16:27.839Z,21.00
2022-09-05T21:18:55.162Z,20.90
2022-09-05T21:21:28.392Z,20.90
2022-09-05T21:24:08.933Z,20.90
2022-09-05T21:26:46.403Z,20.80
2022-09-05T21:29:13.322Z,20.80
2022-09-05T21:31:44.927Z,20.70
2022-09-05T21:34:14.396Z,20.70
2022-09-05T21:36:41.805Z,20.70
2022-09-05T21:39:08.835Z,20.70
2022-09-05T21:41:36.033Z,20.70
2022-09-05T21:47:40.638Z,20.60
2022-09-05T21:47:41.947Z,20.50
2022-09-05T21:49:41.207Z,20.40
2022-09-05T21:52:08.534Z,20.40
2022-09-05T21:59:15.336Z,20.50
2022-09-05T21:59:25.567Z,20.40
2022-09-05T22:00:14.841Z,20.40
2022-09-05T22:02:42.016Z,20.30
2022-09-05T22:05:09.378Z,20.20
2022-09-05T22:07:36.613Z,20.20
2022-09-05T22:10:04.734Z,20.10
2022-09-05T22:12:36.223Z,20.00
2022-09-05T22:15:26.435Z,20.00
2022-09-05T22:17:58.368Z,20.10
2022-09-05T22:20:41.681Z,20.00
2022-09-05T22:23:09.713Z,19.90
2022-09-05T22:25:36.936Z,19.90
2022-09-05T22:28:07.052Z,20.00
2022-09-05T22:30:35.653Z,20.00
2022-09-05T22:33:05.596Z,20.00
2022-09-05T22:35:33.531Z,19.90
2022-09-05T22:38:01.502Z,19.90
2022-09-05T22:40:29.501Z,19.90
2022-09-05T22:42:57.288Z,20.00
2022-09-05T22:45:24.894Z,20.00
2022-09-05T22:47:52.024Z,20.00
2022-09-05T22:50:19.123Z,20.10
2022-09-05T22:52:46.160Z,20.10
2022-09-05T22:55:13.217Z,20.10
2022-09-05T22:57:40.766Z,20.00
2022-09-05T23:00:08.612Z,20.10
2022-09-05T23:02:35.730Z,20.20
2022-09-05T23:05:03.347Z,20.10
2022-09-05T23:07:32.371Z,20.10
2022-09-05T23:09:59.449Z,20.10
2022-09-05T23:12:26.746Z,20.10
2022-09-05T23:14:53.963Z,20.10
2022-09-05T23:17:20.960Z,20.10
2022-09-05T23:19:48.054Z,20.10
2022-09-05T23:22:15.455Z,20.10
2022-09-05T23:24:42.489Z,20.10
2022-09-05T23:27:09.480Z,20.00
2022-09-05T23:29:36.714Z,20.00
2022-09-05T23:32:03.806Z,20.00
2022-09-05T23:34:33.357Z,20.00
2022-09-05T23:37:00.444Z,20.00
2022-09-05T23:39:27.544Z,19.90
2022-09-05T23:41:54.734Z,20.00
2022-09-05T23:44:21.688Z,20.00
2022-09-05T23:46:48.654Z,20.00
2022-09-05T23:49:15.640Z,19.90
2022-09-05T23:51:43.170Z,19.80
2022-09-05T23:54:10.125Z,19.80
2022-09-05T23:56:37.268Z,19.70
2022-09-05T23:59:04.312Z,19.60
